Time;durP1;ratioP1;P1;durP2;ratioP2;P2;SDS_P1;SDS_P2;PMS_P1;PMS_P2;Temp;Humidity;BMP_temperature;BMP_pressure;BME280_temperature;BME280_humidity;BME280_pressure;Samples;Min_cycle;Max_cycle;Signal;HPM_P1;HPM_P2
2021/08/29 00:00:46;;;;;;;9.05;6.53;;;;;;;13.87;89.97;98811.06;3913603;89;21153;-82
2021/08/29 00:06:47;;;;;;;10.43;5.90;;;;;;;13.85;90.35;98808.71;3913100;89;21174;-81
2021/08/29 00:12:48;;;;;;;9.40;5.97;;;;;;;13.95;90.62;98813.97;3908749;90;21078;-83
2021/08/29 00:18:50;;;;;;;10.23;5.95;;;;;;;14.01;90.58;98817.28;3913923;89;21150;-82
2021/08/29 00:24:51;;;;;;;7.53;5.53;;;;;;;14.10;90.53;98814.87;3924659;90;21043;-82
2021/08/29 00:30:53;;;;;;;9.13;5.83;;;;;;;13.97;90.05;98812.95;3922591;90;21090;-82
2021/08/29 00:36:54;;;;;;;9.80;6.00;;;;;;;13.91;90.41;98809.86;3916271;89;21107;-82
2021/08/29 00:42:55;;;;;;;7.90;5.50;;;;;;;13.92;90.87;98809.27;3923836;90;21075;-81
2021/08/29 00:48:57;;;;;;;9.25;5.80;;;;;;;13.90;90.85;98806.13;3925021;89;21112;-82
2021/08/29 00:54:59;;;;;;;9.80;6.03;;;;;;;13.85;91.02;98799.08;3904880;90;21120;-83
2021/08/29 01:01:02;;;;;;;9.33;5.15;;;;;;;13.88;90.98;98797.48;3892045;89;21052;-82
2021/08/29 01:07:28;;;;;;;7.45;5.00;;;;;;;13.92;91.18;98802.39;3903835;90;21063;-82
2021/08/29 01:13:38;;;;;;;10.53;5.78;;;;;;;13.88;91.11;98789.23;3887679;90;21567;-82
2021/08/29 01:19:54;;;;;;;7.40;5.55;;;;;;;13.85;91.01;98790.83;3896880;89;21155;-82
2021/08/29 01:26:01;;;;;;;9.08;5.78;;;;;;;13.72;91.36;98782.83;3876857;90;21118;-82
2021/08/29 01:32:06;;;;;;;10.82;6.47;;;;;;;13.74;91.47;98775.55;3890698;90;21075;-82
2021/08/29 01:38:10;;;;;;;9.48;5.80;;;;;;;13.71;91.61;98778.52;3894819;90;21013;-82
2021/08/29 01:44:13;;;;;;;12.43;6.60;;;;;;;13.64;91.79;98768.91;3894775;89;21069;-82
2021/08/29 01:50:15;;;;;;;9.43;5.75;;;;;;;13.63;92.00;98767.94;3904263;88;22024;-82
2021/08/29 01:56:18;;;;;;;10.50;6.45;;;;;;;13.57;92.17;98768.17;3920010;90;21615;-82
2021/08/29 02:02:24;;;;;;;10.23;6.20;;;;;;;13.57;92.44;98764.04;3920011;89;21147;-82
2021/08/29 02:08:26;;;;;;;11.53;6.28;;;;;;;13.58;92.45;98761.47;3920503;89;21063;-82
2021/08/29 02:14:34;;;;;;;10.70;5.92;;;;;;;13.54;92.51;98756.02;3915645;90;21655;-82
2021/08/29 02:20:36;;;;;;;;;;;;;;;13.48;92.47;98753.48;3911566;90;21142;-83
2021/08/29 02:26:39;;;;;;;8.80;5.80;;;;;;;13.41;93.21;98750.75;3916656;90;20128;-84
2021/08/29 02:32:45;;;;;;;8.25;5.42;;;;;;;13.37;92.79;98750.00;3921342;89;21170;-83
2021/08/29 02:38:50;;;;;;;9.30;5.40;;;;;;;13.45;93.07;98750.75;3925764;89;21142;-82
2021/08/29 02:44:53;;;;;;;9.23;6.05;;;;;;;13.44;93.08;98749.16;3915555;89;21826;-82
2021/08/29 02:50:56;;;;;;;7.80;4.70;;;;;;;13.48;93.07;98753.48;3915580;89;21099;-83
2021/08/29 02:57:00;;;;;;;6.85;4.85;;;;;;;13.50;93.16;98755.84;3826225;92;21110;-82
2021/08/29 03:03:02;;;;;;;9.28;5.40;;;;;;;13.56;93.24;98748.73;3793254;92;21563;-82
2021/08/29 03:09:06;;;;;;;9.53;5.62;;;;;;;13.64;93.37;98750.27;3901485;89;21219;-81
2021/08/29 03:15:12;;;;;;;11.18;5.87;;;;;;;13.63;93.13;98758.31;3897001;89;21628;-82
2021/08/29 03:21:13;;;;;;;9.00;4.78;;;;;;;13.61;93.34;98765.59;3892864;89;21160;-81
2021/08/29 03:27:15;;;;;;;10.95;5.22;;;;;;;13.59;93.41;98758.32;3900681;89;21134;-82
2021/08/29 03:33:17;;;;;;;8.35;5.28;;;;;;;13.60;93.36;98746.73;3900636;90;21135;-83
2021/08/29 03:39:20;;;;;;;9.38;6.15;;;;;;;13.61;93.59;98738.67;3894952;89;21076;-82
2021/08/29 03:45:23;;;;;;;9.80;5.17;;;;;;;13.64;93.72;98744.77;3899529;89;21071;-81
2021/08/29 03:51:26;;;;;;;11.88;6.00;;;;;;;13.63;93.62;98742.60;3906999;90;21156;-82
2021/08/29 03:57:28;;;;;;;11.20;5.90;;;;;;;13.67;93.83;98752.22;3908941;89;21610;-82
2021/08/29 04:03:30;;;;;;;10.38;6.45;;;;;;;13.70;94.01;98750.80;3922216;89;21653;-82
2021/08/29 04:09:49;;;;;;;10.15;6.30;;;;;;;13.71;93.84;98746.89;3917753;90;21160;-82
2021/08/29 04:15:52;;;;;;;8.70;6.20;;;;;;;13.72;94.21;98751.78;3920870;89;21665;-82
2021/08/29 04:21:54;;;;;;;8.80;6.30;;;;;;;13.84;94.25;98745.22;3918296;89;21134;-80
2021/08/29 04:27:57;;;;;;;10.88;6.53;;;;;;;13.83;93.79;98741.50;3921101;89;21523;-82
2021/08/29 04:34:06;;;;;;;12.20;7.00;;;;;;;13.66;93.76;98754.76;3930777;89;21567;-82
2021/08/29 04:40:13;;;;;;;9.80;7.05;;;;;;;13.67;94.18;98748.85;3920895;89;21103;-82
2021/08/29 04:46:22;;;;;;;10.20;6.60;;;;;;;13.69;94.21;98740.99;3921266;90;21139;-82
2021/08/29 04:52:23;;;;;;;9.85;6.72;;;;;;;13.76;94.64;98738.22;3909846;90;21089;-81
2021/08/29 04:58:26;;;;;;;11.70;8.83;;;;;;;13.82;94.53;98734.44;3870779;90;21539;-82
2021/08/29 05:04:27;;;;;;;10.85;7.50;;;;;;;13.80;94.29;98734.05;3890725;90;21091;-82
2021/08/29 05:10:28;;;;;;;14.38;7.97;;;;;;;13.80;94.72;98738.97;3900444;90;21095;-82
2021/08/29 05:16:43;;;;;;;11.08;7.20;;;;;;;13.90;94.63;98738.72;3892862;90;21102;-82
2021/08/29 05:22:44;;;;;;;13.03;8.18;;;;;;;13.95;94.66;98743.19;3884929;90;21067;-83
2021/08/29 05:28:56;;;;;;;13.08;8.55;;;;;;;13.98;94.65;98738.25;3876968;90;21131;-82
2021/08/29 05:34:58;;;;;;;13.45;8.33;;;;;;;14.01;94.56;98747.69;3887381;89;21116;-82
2021/08/29 05:40:59;;;;;;;11.80;8.83;;;;;;;14.01;94.61;98757.32;3893841;90;21491;-83
2021/08/29 05:47:19;;;;;;;13.28;9.15;;;;;;;14.08;94.68;98753.13;3890663;90;21151;-84
2021/08/29 05:53:20;;;;;;;11.78;8.73;;;;;;;14.11;94.76;98753.11;3892052;89;21115;-82
2021/08/29 05:59:24;;;;;;;14.10;8.73;;;;;;;14.13;94.51;98759.00;3895556;90;21083;-83
2021/08/29 06:05:27;;;;;;;13.20;8.05;;;;;;;14.11;94.54;98754.48;3894441;91;21082;-83
2021/08/29 06:11:31;;;;;;;10.58;6.08;;;;;;;14.23;94.70;98749.87;3841443;91;21550;-82
2021/08/29 06:17:32;;;;;;;12.60;6.28;;;;;;;14.22;94.64;98741.25;3843670;92;21544;-82
2021/08/29 06:23:33;;;;;;;13.00;5.90;;;;;;;14.28;94.63;98740.45;3839630;91;21139;-82
2021/08/29 06:29:52;;;;;;;11.75;5.70;;;;;;;14.38;94.39;98742.32;3845865;92;21012;-83
2021/08/29 06:36:12;;;;;;;8.10;5.33;;;;;;;14.46;94.32;98746.59;3893145;90;21123;-82
2021/08/29 06:42:14;;;;;;;11.43;5.50;;;;;;;14.56;94.34;98749.06;3887421;90;21546;-83
2021/08/29 06:48:15;;;;;;;11.15;6.20;;;;;;;14.56;94.12;98755.37;3889641;90;21089;-81
2021/08/29 06:54:35;;;;;;;10.75;6.45;;;;;;;14.61;94.20;98753.53;3907490;90;21123;-82
2021/08/29 07:00:38;;;;;;;14.70;7.80;;;;;;;14.67;94.13;98753.89;3909479;90;21602;-82
2021/08/29 07:06:41;;;;;;;10.78;7.37;;;;;;;14.59;94.10;98749.63;3914677;89;21150;-83
2021/08/29 07:12:45;;;;;;;10.72;7.20;;;;;;;14.59;94.40;98746.29;3864135;90;21123;-83
2021/08/29 07:18:51;;;;;;;11.73;8.00;;;;;;;14.65;94.69;98755.67;3914416;89;21079;-83
2021/08/29 07:24:57;;;;;;;12.00;7.40;;;;;;;14.76;94.85;98747.30;3870118;90;21536;-83
2021/08/29 07:31:17;;;;;;;11.80;8.38;;;;;;;14.82;94.89;98734.06;3923996;89;21096;-83
2021/08/29 07:37:21;;;;;;;12.55;8.53;;;;;;;14.86;94.92;98735.41;3919041;89;21143;-83
2021/08/29 07:43:21;;;;;;;13.18;8.43;;;;;;;14.94;94.92;98728.63;3917621;89;21064;-84
2021/08/29 07:49:23;;;;;;;14.00;9.33;;;;;;;15.09;95.12;98730.03;3910859;89;21127;-84
2021/08/29 07:55:24;;;;;;;18.40;11.90;;;;;;;15.23;95.07;98729.28;3898496;88;21108;-84
2021/08/29 08:01:43;;;;;;;21.25;13.35;;;;;;;15.35;94.94;98730.11;3880341;91;21104;-83
2021/08/29 08:07:49;;;;;;;21.48;14.60;;;;;;;15.40;94.87;98734.42;3885784;90;21571;-83
2021/08/29 08:14:06;;;;;;;25.75;17.12;;;;;;;15.47;94.59;98728.83;3822937;91;21520;-83
2021/08/29 08:20:09;;;;;;;27.82;17.40;;;;;;;15.49;94.80;98728.59;3893433;91;21091;-82
2021/08/29 08:26:12;;;;;;;23.65;15.55;;;;;;;15.59;94.83;98719.41;3895423;89;21077;-83
2021/08/29 08:32:15;;;;;;;19.77;14.15;;;;;;;15.68;94.76;98721.64;3883382;91;21103;-83
2021/08/29 08:38:38;;;;;;;19.42;11.70;;;;;;;15.87;94.84;98732.61;3894767;90;21751;-83
2021/08/29 08:44:56;;;;;;;13.98;9.15;;;;;;;15.99;94.58;98732.06;3886203;91;21099;-85
2021/08/29 08:51:27;;;;;;;11.10;8.28;;;;;;;16.05;94.12;98737.29;3693585;94;21665;-82
2021/08/29 08:57:48;;;;;;;12.07;8.60;;;;;;;16.03;93.67;98735.53;3919271;89;21132;-83
2021/08/29 09:03:53;;;;;;;13.15;8.10;;;;;;;16.06;93.44;98734.11;3905354;89;21112;-83
2021/08/29 09:09:56;;;;;;;12.82;8.65;;;;;;;16.08;92.97;98729.55;3924079;89;21118;-83
2021/08/29 09:16:20;;;;;;;13.75;8.73;;;;;;;16.21;92.75;98733.30;3923820;90;21647;-83
2021/08/29 09:22:27;;;;;;;15.10;8.85;;;;;;;16.31;92.54;98733.72;3923922;89;21135;-83
2021/08/29 09:28:30;;;;;;;11.90;7.40;;;;;;;16.34;92.13;98729.52;3911501;90;21704;-83
2021/08/29 09:34:33;;;;;;;12.63;7.87;;;;;;;16.37;91.64;98725.13;3911670;89;21717;-84
2021/08/29 09:40:38;;;;;;;10.00;7.20;;;;;;;16.37;90.40;98726.52;3913606;90;21016;-83
2021/08/29 09:47:15;;;;;;;11.48;7.55;;;;;;;16.39;91.15;98729.64;3923132;89;21175;-83
2021/08/29 09:53:21;;;;;;;9.38;6.08;;;;;;;16.45;90.77;98729.38;4023206;87;21611;-82
2021/08/29 09:59:45;;;;;;;7.17;5.17;;;;;;;16.54;90.63;98727.63;4027703;87;21100;-83
2021/08/29 10:06:31;;;;;;;8.63;5.05;;;;;;;16.56;90.00;98721.09;4031934;87;21111;-85
2021/08/29 10:12:33;;;;;;;7.92;4.78;;;;;;;16.48;89.54;98712.75;4031669;87;21715;-83
2021/08/29 10:18:40;;;;;;;7.25;4.40;;;;;;;16.60;89.44;98700.31;4030394;87;21210;-84
2021/08/29 10:25:02;;;;;;;9.50;5.22;;;;;;;16.69;89.30;98706.86;4038915;87;21102;-84
2021/08/29 10:31:12;;;;;;;7.37;4.80;;;;;;;16.71;88.87;98703.05;4013454;87;21079;-84
2021/08/29 10:37:15;;;;;;;4.47;3.85;;;;;;;16.70;89.07;98702.88;4033729;87;21887;-84
2021/08/29 10:43:18;;;;;;;5.25;3.37;;;;;;;16.69;88.66;98707.45;4031266;87;21107;-82
2021/08/29 10:49:37;;;;;;;3.00;2.25;;;;;;;16.74;88.34;98705.59;3965734;87;21095;-83
2021/08/29 10:55:39;;;;;;;3.35;2.80;;;;;;;16.74;87.44;98700.83;4028192;87;21109;-83
2021/08/29 11:01:47;;;;;;;3.98;3.40;;;;;;;16.84;87.37;98690.78;4029803;87;21067;-85
2021/08/29 11:07:57;;;;;;;4.42;3.27;;;;;;;16.89;87.04;98687.53;4024907;87;21127;-83
2021/08/29 11:13:58;;;;;;;4.20;3.35;;;;;;;16.81;86.10;98690.24;4025735;87;21636;-82
2021/08/29 11:20:13;;;;;;;6.50;4.30;;;;;;;16.85;86.45;98686.20;4026935;86;21047;-83
2021/08/29 11:26:37;;;;;;;5.62;4.37;;;;;;;16.86;86.10;98686.41;4022058;87;21107;-83
2021/08/29 11:33:03;;;;;;;6.70;4.90;;;;;;;16.86;85.58;98685.61;4027529;87;22094;-83
2021/08/29 11:39:36;;;;;;;6.45;4.83;;;;;;;16.85;86.04;98688.21;4023902;87;21047;-83
2021/08/29 11:46:12;;;;;;;7.12;4.80;;;;;;;17.01;85.91;98688.27;4027824;86;21119;-83
2021/08/29 11:52:37;;;;;;;6.42;4.80;;;;;;;17.02;85.62;98690.61;4015603;87;21381;-83
2021/08/29 11:58:43;;;;;;;6.30;5.65;;;;;;;17.10;85.48;98680.97;4017184;87;22266;-83
2021/08/29 12:04:45;;;;;;;8.35;5.00;;;;;;;17.17;85.12;98676.70;4016960;87;21040;-83
2021/08/29 12:11:05;;;;;;;7.17;4.87;;;;;;;17.27;85.21;98677.69;4015266;87;21165;-83
2021/08/29 12:17:25;;;;;;;6.78;5.33;;;;;;;17.43;84.05;98670.05;3917531;87;21492;-82
2021/08/29 12:23:27;;;;;;;7.28;5.53;;;;;;;17.50;83.53;98660.22;4014614;87;21023;-82
2021/08/29 12:29:31;;;;;;;9.05;6.15;;;;;;;17.62;83.60;98663.11;4015421;87;21625;-82
2021/08/29 12:35:33;;;;;;;7.00;6.10;;;;;;;17.89;81.68;98665.06;4015726;87;21043;-84
2021/08/29 12:41:34;;;;;;;8.70;5.33;;;;;;;18.02;82.69;98663.17;4016321;87;21079;-84
2021/08/29 12:47:38;;;;;;;6.72;4.90;;;;;;;18.23;82.20;98653.55;4015789;87;21095;-83
2021/08/29 12:53:40;;;;;;;9.70;5.30;;;;;;;18.32;81.16;98648.19;3997818;87;21076;-83
2021/08/29 12:59:42;;;;;;;8.03;4.65;;;;;;;18.11;79.76;98647.32;4015291;87;21417;-83
2021/08/29 13:05:46;;;;;;;6.80;5.20;;;;;;;18.14;80.07;98647.25;4015783;87;21111;-84
2021/08/29 13:11:47;;;;;;;7.03;4.80;;;;;;;17.95;80.64;98643.95;4014756;87;21773;-84
2021/08/29 13:17:49;;;;;;;8.93;5.15;;;;;;;17.98;80.42;98641.70;4013202;87;21067;-82
2021/08/29 13:23:51;;;;;;;4.95;3.80;;;;;;;17.88;78.70;98637.80;4017574;87;21091;-83
2021/08/29 13:29:57;;;;;;;5.92;4.67;;;;;;;17.85;77.95;98638.08;4018000;87;21174;-83
2021/08/29 13:36:03;;;;;;;6.78;4.75;;;;;;;18.10;79.06;98641.00;4017108;87;21055;-82
2021/08/29 13:42:19;;;;;;;5.55;4.12;;;;;;;18.05;76.59;98631.05;4013910;87;21549;-83
2021/08/29 13:48:21;;;;;;;5.63;4.23;;;;;;;18.05;77.30;98633.23;4018047;87;21549;-82
2021/08/29 13:54:22;;;;;;;5.08;4.03;;;;;;;17.86;76.21;98634.68;3974379;88;21340;-84
2021/08/29 14:00:24;;;;;;;5.05;3.72;;;;;;;17.88;76.22;98628.91;3972971;88;21132;-82
2021/08/29 14:06:25;;;;;;;4.00;3.47;;;;;;;17.81;75.19;98633.20;3975952;88;21037;-82
2021/08/29 14:12:26;;;;;;;3.52;2.72;;;;;;;17.69;75.24;98632.52;3977575;88;21077;-83
2021/08/29 14:18:28;;;;;;;3.37;2.45;;;;;;;17.65;76.23;98630.41;3973402;88;21080;-83
2021/08/29 14:24:34;;;;;;;4.08;3.20;;;;;;;17.68;75.37;98634.33;3977728;88;21076;-83
2021/08/29 14:30:34;;;;;;;7.47;3.10;;;;;;;17.47;75.81;98645.27;3974538;88;22152;-83
2021/08/29 14:36:36;;;;;;;6.08;3.33;;;;;;;17.52;76.24;98646.15;3978489;88;21048;-84
2021/08/29 14:42:38;;;;;;;4.42;3.02;;;;;;;17.61;76.27;98644.95;3974032;88;21340;-83
2021/08/29 14:48:42;;;;;;;4.53;3.15;;;;;;;17.49;76.37;98641.48;3973655;88;21170;-82
2021/08/29 14:54:44;;;;;;;5.58;2.90;;;;;;;17.31;76.00;98640.25;3979492;88;21439;-83
2021/08/29 15:00:45;;;;;;;4.55;3.12;;;;;;;17.23;76.08;98637.64;3971165;88;21080;-83
2021/08/29 15:06:46;;;;;;;4.33;3.27;;;;;;;17.18;76.31;98630.44;3971505;88;21052;-83
2021/08/29 15:12:47;;;;;;;4.47;2.98;;;;;;;17.00;76.06;98633.59;3972518;88;21084;-83
2021/08/29 15:18:48;;;;;;;7.37;3.02;;;;;;;16.96;76.64;98632.11;3973151;88;21067;-83
2021/08/29 15:24:51;;;;;;;4.95;3.08;;;;;;;16.97;76.77;98620.63;3975093;88;21115;-83
2021/08/29 15:30:52;;;;;;;4.58;3.00;;;;;;;16.88;77.14;98615.48;3972919;88;21076;-83
2021/08/29 15:36:53;;;;;;;4.80;2.40;;;;;;;16.80;77.38;98614.06;3974402;88;21093;-82
2021/08/29 15:42:54;;;;;;;3.80;2.80;;;;;;;16.69;77.36;98610.72;3973515;88;21601;-83
2021/08/29 15:48:56;;;;;;;3.17;2.55;;;;;;;16.64;77.72;98601.53;3975722;88;21080;-82
2021/08/29 15:54:57;;;;;;;3.22;2.65;;;;;;;16.58;77.60;98600.47;4030556;87;21051;-83
2021/08/29 16:00:58;;;;;;;3.30;2.75;;;;;;;16.50;77.92;98604.57;4033149;87;21078;-83
2021/08/29 16:06:59;;;;;;;3.67;2.55;;;;;;;16.50;77.55;98605.95;4031451;87;21171;-82
2021/08/29 16:13:00;;;;;;;3.85;3.00;;;;;;;16.37;78.07;98592.54;4030160;87;21731;-82
2021/08/29 16:19:02;;;;;;;4.65;2.45;;;;;;;16.36;78.35;98594.55;4030905;87;21151;-82
2021/08/29 16:25:05;;;;;;;4.97;2.67;;;;;;;16.35;78.68;98594.34;4032258;87;21587;-83
2021/08/29 16:31:07;;;;;;;4.37;2.55;;;;;;;16.23;78.52;98594.97;4032424;87;21020;-82
2021/08/29 16:37:09;;;;;;;3.55;2.72;;;;;;;16.23;78.83;98601.08;4038447;87;21064;-82
2021/08/29 16:43:11;;;;;;;3.45;2.55;;;;;;;16.24;79.17;98608.95;4033756;87;21031;-81
2021/08/29 16:49:13;;;;;;;5.37;2.70;;;;;;;16.12;79.25;98604.04;4031654;87;21059;-83
2021/08/29 16:55:16;;;;;;;4.12;3.15;;;;;;;16.06;79.44;98604.94;4028322;87;21098;-83
2021/08/29 17:01:17;;;;;;;3.92;2.90;;;;;;;15.99;79.54;98608.59;4027782;87;21511;-82
2021/08/29 17:07:19;;;;;;;4.03;2.90;;;;;;;16.01;79.90;98617.23;4034342;87;21069;-82
2021/08/29 17:13:20;;;;;;;3.92;2.80;;;;;;;16.04;80.23;98634.94;4033402;87;21119;-82
2021/08/29 17:19:22;;;;;;;5.70;2.92;;;;;;;15.96;80.77;98641.17;4031023;87;21095;-83
2021/08/29 17:25:23;;;;;;;5.92;3.20;;;;;;;15.85;81.16;98647.46;4037893;87;21074;-82
2021/08/29 17:31:25;;;;;;;5.08;3.50;;;;;;;15.78;81.41;98647.58;3914789;87;9999931;-82
2021/08/29 17:37:26;;;;;;;5.78;3.65;;;;;;;15.71;81.63;98656.58;4037222;87;21601;-84
2021/08/29 17:43:27;;;;;;;3.83;3.08;;;;;;;15.62;81.96;98662.01;4029708;87;21047;-84
2021/08/29 17:49:29;;;;;;;4.70;3.52;;;;;;;15.51;82.47;98659.20;4025777;87;22039;-83
2021/08/29 17:55:31;;;;;;;7.50;4.97;;;;;;;15.48;82.82;98666.94;3995645;88;21199;-83
2021/08/29 18:01:32;;;;;;;9.50;5.33;;;;;;;15.37;82.77;98675.92;3996675;88;21004;-83
2021/08/29 18:07:33;;;;;;;8.83;5.08;;;;;;;15.22;83.54;98682.82;3998861;88;21100;-84
2021/08/29 18:13:35;;;;;;;10.25;6.40;;;;;;;15.23;83.91;98695.41;3996647;88;21067;-84
2021/08/29 18:19:37;;;;;;;16.50;9.98;;;;;;;15.24;84.16;98690.06;3992470;88;21052;-84
2021/08/29 18:25:38;;;;;;;13.32;8.38;;;;;;;15.22;84.29;98693.85;3996970;88;21048;-83
2021/08/29 18:31:41;;;;;;;12.65;8.70;;;;;;;15.20;84.81;98696.23;3997847;88;21073;-83
2021/08/29 18:37:43;;;;;;;11.15;7.95;;;;;;;15.14;85.11;98684.09;3999854;88;21067;-83
2021/08/29 18:43:44;;;;;;;12.25;8.18;;;;;;;15.14;85.52;98673.83;3996744;88;21167;-83
2021/08/29 18:49:45;;;;;;;14.28;8.38;;;;;;;15.11;85.79;98666.39;3998531;88;21498;-83
2021/08/29 18:55:46;;;;;;;13.78;8.95;;;;;;;15.10;86.13;98666.80;4024904;87;21211;-83
2021/08/29 19:01:49;;;;;;;22.45;11.43;;;;;;;15.05;86.51;98665.28;4026887;87;21655;-83
2021/08/29 19:07:51;;;;;;;16.00;10.68;;;;;;;14.99;86.79;98673.03;4024587;87;21107;-83
2021/08/29 19:13:54;;;;;;;15.83;11.43;;;;;;;14.94;87.11;98664.63;4025954;87;21063;-83
2021/08/29 19:19:55;;;;;;;11.95;8.80;;;;;;;14.88;87.46;98654.46;4026445;87;21640;-84
2021/08/29 19:25:56;;;;;;;13.62;7.45;;;;;;;14.83;87.58;98658.45;4024083;87;21873;-84
2021/08/29 19:31:57;;;;;;;8.58;6.28;;;;;;;14.80;87.73;98663.41;4026428;87;21678;-83
2021/08/29 19:37:59;;;;;;;8.78;5.25;;;;;;;14.81;87.88;98660.06;3913786;87;10000318;-85
2021/08/29 19:44:01;;;;;;;7.55;5.47;;;;;;;14.75;88.01;98652.83;4025585;87;21609;-83
2021/08/29 19:50:05;;;;;;;9.78;5.72;;;;;;;14.67;88.03;98647.83;4025394;87;21994;-83
2021/08/29 19:56:07;;;;;;;7.33;5.78;;;;;;;14.62;88.28;98649.05;3997207;88;21173;-82
2021/08/29 20:02:08;;;;;;;7.58;5.28;;;;;;;14.62;88.49;98655.16;3998396;88;21041;-83
2021/08/29 20:08:10;;;;;;;7.45;4.30;;;;;;;14.60;88.63;98664.41;3993602;88;21083;-83
2021/08/29 20:14:11;;;;;;;6.10;4.20;;;;;;;14.52;88.22;98663.70;3998033;88;21533;-83
2021/08/29 20:20:13;;;;;;;6.42;3.75;;;;;;;14.48;88.43;98652.55;3997462;88;21469;-82
2021/08/29 20:26:14;;;;;;;5.75;4.08;;;;;;;14.43;88.23;98644.72;3995132;88;21059;-82
2021/08/29 20:32:16;;;;;;;8.58;5.05;;;;;;;14.42;88.52;98645.92;3994712;88;21143;-83
2021/08/29 20:38:18;;;;;;;7.70;4.92;;;;;;;14.40;88.48;98652.42;4000105;88;21102;-83
2021/08/29 20:44:19;;;;;;;5.42;4.50;;;;;;;14.39;88.75;98636.52;3996675;88;21104;-83
2021/08/29 20:50:21;;;;;;;5.42;4.53;;;;;;;14.37;88.91;98640.27;3999559;88;21536;-82
2021/08/29 20:56:23;;;;;;;10.40;4.45;;;;;;;14.39;89.24;98633.76;3980001;88;21112;-83
2021/08/29 21:02:24;;;;;;;9.05;4.83;;;;;;;14.41;89.37;98629.22;3975473;88;21632;-83
2021/08/29 21:08:25;;;;;;;8.18;4.50;;;;;;;14.40;89.42;98622.13;3973948;88;21580;-83
2021/08/29 21:14:26;;;;;;;7.10;4.37;;;;;;;14.45;89.57;98615.59;3975205;88;21535;-83
2021/08/29 21:20:29;;;;;;;5.67;4.22;;;;;;;14.46;89.66;98622.66;3975727;88;21621;-83
2021/08/29 21:26:34;;;;;;;7.40;4.70;;;;;;;14.42;89.85;98623.30;3923896;89;21124;-82
2021/08/29 21:32:34;;;;;;;8.90;4.53;;;;;;;14.28;89.81;98611.64;3925035;89;21099;-83
2021/08/29 21:38:36;;;;;;;5.85;4.37;;;;;;;14.21;90.18;98612.45;3912115;89;21163;-81
2021/08/29 21:44:37;;;;;;;8.05;4.87;;;;;;;14.19;90.57;98601.84;3929621;89;21622;-83
2021/08/29 21:50:38;;;;;;;5.33;4.45;;;;;;;14.29;90.80;98599.42;3929313;89;21639;-83
2021/08/29 21:56:40;;;;;;;4.72;4.20;;;;;;;14.33;90.90;98600.19;4003785;87;21122;-83
2021/08/29 22:02:41;;;;;;;6.85;4.90;;;;;;;14.28;90.73;98614.39;4006624;87;21087;-83
2021/08/29 22:08:42;;;;;;;10.38;4.25;;;;;;;14.31;91.25;98619.08;3889347;90;21154;-83
2021/08/29 22:14:43;;;;;;;5.70;5.15;;;;;;;14.35;91.24;98620.61;3913014;90;21546;-82
2021/08/29 22:20:45;;;;;;;6.30;4.90;;;;;;;14.32;91.25;98598.61;3917178;90;21181;-83
2021/08/29 22:26:46;;;;;;;9.70;5.15;;;;;;;14.35;91.48;98591.69;4008480;87;21099;-82
2021/08/29 22:32:47;;;;;;;6.25;5.25;;;;;;;14.35;91.57;98597.20;4007525;87;21530;-83
2021/08/29 22:38:49;;;;;;;6.45;4.92;;;;;;;14.29;91.56;98585.08;4005807;87;21641;-83
2021/08/29 22:44:50;;;;;;;6.35;4.85;;;;;;;14.25;91.86;98563.66;4005214;87;21063;-82
2021/08/29 22:50:52;;;;;;;5.90;5.03;;;;;;;14.25;91.97;98576.67;3937813;89;21050;-83
2021/08/29 22:56:53;;;;;;;6.92;4.95;;;;;;;14.28;92.28;98570.34;4007549;87;21576;-83
2021/08/29 23:02:56;;;;;;;6.22;5.00;;;;;;;14.26;92.11;98584.52;4006001;87;21083;-83
2021/08/29 23:08:57;;;;;;;6.10;5.22;;;;;;;14.23;92.23;98577.05;3890651;90;21647;-83
2021/08/29 23:14:59;;;;;;;6.05;5.45;;;;;;;14.06;92.09;98583.51;3909544;90;21061;-83
2021/08/29 23:21:01;;;;;;;7.62;5.42;;;;;;;13.92;92.48;98578.90;3913518;90;21578;-83
2021/08/29 23:27:05;;;;;;;9.30;5.70;;;;;;;13.86;92.51;98572.27;3914205;90;21089;-83
2021/08/29 23:33:23;;;;;;;11.25;5.78;;;;;;;13.84;93.05;98579.38;3913412;90;21053;-83
2021/08/29 23:39:25;;;;;;;7.50;5.42;;;;;;;13.89;93.33;98578.34;3909870;90;21110;-83
2021/08/29 23:45:26;;;;;;;8.80;5.90;;;;;;;13.93;93.37;98570.05;3908952;90;21578;-84
2021/08/29 23:51:27;;;;;;;12.43;5.90;;;;;;;13.90;93.28;98573.04;3915219;90;21728;-83
2021/08/29 23:57:28;;;;;;;11.75;6.33;;;;;;;13.85;93.30;98565.22;3906637;90;21636;-82
